Time;durP1;ratioP1;P1;durP2;ratioP2;P2;SDS_P1;SDS_P2;PMS_P1;PMS_P2;Temp;Humidity;BMP_temperature;BMP_pressure;BME280_temperature;BME280_humidity;BME280_pressure;Samples;Min_cycle;Max_cycle;Signal;HPM_P1;HPM_P2
2021/05/30 00:01:46;;;;;;;5.47;2.83;;;12.40;62.50;;;;;;5083359;28;20036;-49
2021/05/30 00:04:11;;;;;;;4.32;2.80;;;12.40;62.60;;;;;;5081897;28;20350;-47
2021/05/30 00:06:37;;;;;;;4.13;2.88;;;12.40;62.70;;;;;;5083003;28;20032;-47
2021/05/30 00:09:05;;;;;;;5.72;2.88;;;12.40;62.60;;;;;;5084823;28;20033;-49
2021/05/30 00:11:33;;;;;;;8.10;3.20;;;12.40;62.70;;;;;;5083183;28;20381;-47
2021/05/30 00:13:59;;;;;;;4.03;2.92;;;12.40;62.60;;;;;;5083168;28;20060;-47
2021/05/30 00:16:25;;;;;;;4.00;2.80;;;12.30;62.60;;;;;;5082656;28;20100;-47
2021/05/30 00:18:50;;;;;;;4.53;2.70;;;12.40;62.60;;;;;;5082628;28;20217;-46
2021/05/30 00:21:16;;;;;;;5.05;2.90;;;12.30;62.70;;;;;;5082820;28;20037;-49
2021/05/30 00:23:41;;;;;;;7.53;2.85;;;12.30;62.80;;;;;;5084404;28;20079;-47
2021/05/30 00:26:07;;;;;;;4.88;2.70;;;12.30;62.90;;;;;;5082944;28;20037;-46
2021/05/30 00:28:32;;;;;;;4.38;2.55;;;12.20;62.90;;;;;;5082506;28;20036;-46
2021/05/30 00:30:58;;;;;;;4.85;3.20;;;12.30;62.80;;;;;;5082446;28;20029;-47
2021/05/30 00:33:23;;;;;;;5.00;2.83;;;12.20;63.00;;;;;;5082436;28;20092;-46
2021/05/30 00:35:49;;;;;;;5.90;3.60;;;12.20;63.00;;;;;;5084528;28;20036;-46
2021/05/30 00:38:14;;;;;;;4.82;3.08;;;12.20;62.90;;;;;;5083124;28;20052;-48
2021/05/30 00:40:42;;;;;;;4.88;3.65;;;12.10;62.80;;;;;;5082530;28;20347;-46
2021/05/30 00:43:08;;;;;;;6.25;3.00;;;12.10;62.80;;;;;;5082481;28;20039;-48
2021/05/30 00:45:34;;;;;;;5.07;2.67;;;12.10;62.90;;;;;;5082653;28;20032;-48
2021/05/30 00:48:00;;;;;;;6.75;2.90;;;12.00;63.00;;;;;;5084577;28;20040;-49
2021/05/30 00:50:25;;;;;;;3.58;2.75;;;12.00;63.00;;;;;;5082900;28;20033;-46
2021/05/30 00:52:51;;;;;;;3.95;2.65;;;11.90;63.00;;;;;;5082458;28;20033;-47
2021/05/30 00:55:17;;;;;;;5.57;2.90;;;12.00;63.10;;;;;;5064559;28;20032;-49
2021/05/30 00:57:42;;;;;;;4.72;2.70;;;11.90;63.00;;;;;;5082606;28;20088;-48
2021/05/30 01:00:10;;;;;;;4.82;2.85;;;11.90;63.10;;;;;;5084247;28;20044;-46
2021/05/30 01:02:35;;;;;;;4.47;2.42;;;11.90;63.20;;;;;;5082447;28;20059;-47
2021/05/30 01:05:01;;;;;;;5.75;2.85;;;11.90;63.40;;;;;;5082698;28;20033;-48
2021/05/30 01:07:27;;;;;;;5.15;2.80;;;11.90;63.20;;;;;;5082491;28;20036;-47
2021/05/30 01:09:52;;;;;;;4.25;2.50;;;11.80;63.30;;;;;;5081225;28;20295;-47
2021/05/30 01:12:18;;;;;;;6.15;2.88;;;11.80;63.40;;;;;;5082155;28;20021;-47
2021/05/30 01:14:43;;;;;;;3.75;2.83;;;11.90;63.50;;;;;;5084146;28;20028;-47
2021/05/30 01:17:09;;;;;;;3.97;2.53;;;11.80;63.50;;;;;;5086274;28;20068;-47
2021/05/30 01:19:35;;;;;;;5.88;2.50;;;11.80;63.20;;;;;;5086693;28;20045;-47
2021/05/30 01:22:00;;;;;;;4.07;2.55;;;11.70;63.20;;;;;;5085115;28;20048;-46
2021/05/30 01:24:26;;;;;;;6.15;2.85;;;11.80;63.10;;;;;;5085082;28;20040;-46
2021/05/30 01:26:51;;;;;;;3.70;3.00;;;11.70;63.30;;;;;;5086925;28;20055;-46
2021/05/30 01:29:17;;;;;;;3.20;2.60;;;11.70;63.20;;;;;;5086545;28;20288;-50
2021/05/30 01:31:42;;;;;;;5.78;2.60;;;11.70;63.30;;;;;;5086160;28;20060;-49
2021/05/30 01:34:08;;;;;;;6.40;2.70;;;11.60;63.50;;;;;;5086087;28;20074;-47
2021/05/30 01:36:33;;;;;;;3.67;2.53;;;11.60;63.30;;;;;;5086122;28;20029;-49
2021/05/30 01:38:59;;;;;;;6.30;2.45;;;11.60;63.20;;;;;;5087820;28;20039;-47
2021/05/30 01:41:25;;;;;;;4.10;2.65;;;11.60;63.40;;;;;;5086250;28;20062;-47
2021/05/30 01:43:50;;;;;;;4.85;2.50;;;11.50;63.20;;;;;;5086242;28;20403;-47
2021/05/30 01:46:16;;;;;;;3.70;2.40;;;11.60;63.20;;;;;;5085670;28;20033;-48
2021/05/30 01:48:41;;;;;;;3.90;2.50;;;11.60;63.00;;;;;;5085595;28;20036;-46
2021/05/30 01:51:07;;;;;;;3.08;2.20;;;11.60;63.10;;;;;;5087201;28;20087;-50
2021/05/30 01:53:38;;;;;;;4.35;2.60;;;11.50;63.20;;;;;;5086128;28;20085;-48
2021/05/30 01:58:29;;;;;;;3.13;2.22;;;11.50;63.00;;;;;;5086135;28;20382;-46
2021/05/30 02:00:55;;;;;;;4.75;2.42;;;11.40;62.70;;;;;;5084323;28;20060;-47
2021/05/30 02:03:20;;;;;;;4.63;2.50;;;11.40;62.40;;;;;;5084247;28;20039;-48
2021/05/30 02:05:49;;;;;;;4.03;2.60;;;11.40;62.60;;;;;;5085902;28;20028;-47
2021/05/30 02:08:15;;;;;;;3.50;2.60;;;11.40;62.70;;;;;;5084650;28;20278;-46
2021/05/30 02:10:40;;;;;;;3.97;2.80;;;11.30;62.70;;;;;;5085661;28;20028;-50
2021/05/30 02:13:06;;;;;;;6.20;2.90;;;11.30;62.50;;;;;;5085769;28;20024;-47
2021/05/30 02:15:32;;;;;;;8.30;2.80;;;11.30;62.60;;;;;;5085210;28;20316;-50
2021/05/30 02:17:58;;;;;;;4.03;2.90;;;11.30;62.80;;;;;;5087009;28;20028;-47
2021/05/30 02:20:34;;;;;;;4.50;2.65;;;11.20;63.00;;;;;;5084971;28;20060;-46
2021/05/30 02:23:00;;;;;;;4.38;2.83;;;11.30;63.00;;;;;;5084997;28;20340;-46
2021/05/30 02:25:25;;;;;;;4.15;2.67;;;11.30;63.00;;;;;;5085307;28;20043;-47
2021/05/30 02:27:51;;;;;;;4.30;2.50;;;11.20;63.10;;;;;;5084870;28;20394;-47
2021/05/30 02:30:18;;;;;;;4.40;2.60;;;11.20;62.70;;;;;;5084863;28;20036;-47
2021/05/30 02:32:44;;;;;;;5.18;3.13;;;11.10;62.70;;;;;;5087055;28;20032;-47
2021/05/30 02:35:09;;;;;;;4.68;2.60;;;11.20;62.80;;;;;;5085214;28;20040;-47
2021/05/30 02:37:35;;;;;;;4.43;2.60;;;11.10;62.90;;;;;;5084798;28;20362;-47
2021/05/30 02:40:00;;;;;;;3.58;2.78;;;11.00;63.20;;;;;;5084832;28;20104;-48
2021/05/30 02:42:26;;;;;;;5.45;2.65;;;11.10;63.10;;;;;;5084718;28;20024;-48
2021/05/30 02:44:51;;;;;;;4.22;2.47;;;11.00;63.10;;;;;;5086287;28;20096;-46
2021/05/30 02:47:17;;;;;;;4.93;2.90;;;11.10;63.10;;;;;;5085105;28;20052;-47
2021/05/30 02:49:42;;;;;;;5.25;2.40;;;11.00;63.00;;;;;;5084107;28;20047;-49
2021/05/30 02:52:08;;;;;;;4.30;2.38;;;11.00;63.00;;;;;;5084496;28;20059;-46
2021/05/30 02:54:34;;;;;;;5.35;2.67;;;11.00;63.00;;;;;;5084983;28;20339;-46
2021/05/30 02:56:59;;;;;;;5.50;2.38;;;10.90;63.10;;;;;;5086372;28;20044;-47
2021/05/30 02:59:25;;;;;;;4.47;2.88;;;11.00;63.70;;;;;;5084871;28;20347;-47
2021/05/30 03:01:50;;;;;;;3.80;2.22;;;10.90;63.70;;;;;;5084261;28;20048;-51
2021/05/30 03:04:16;;;;;;;10.80;3.20;;;11.00;64.00;;;;;;5084206;28;20059;-48
2021/05/30 03:06:41;;;;;;;4.35;2.70;;;11.00;64.20;;;;;;5084273;28;20032;-46
2021/05/30 03:09:07;;;;;;;3.75;2.42;;;10.90;64.20;;;;;;5086391;28;20023;-46
2021/05/30 03:11:33;;;;;;;3.45;2.60;;;11.10;64.20;;;;;;5084014;28;20039;-49
2021/05/30 03:13:58;;;;;;;5.57;2.60;;;11.10;64.40;;;;;;5084521;28;20056;-47
2021/05/30 03:16:24;;;;;;;3.58;2.70;;;11.00;64.30;;;;;;5084064;28;20043;-47
2021/05/30 03:18:49;;;;;;;4.53;2.58;;;11.10;63.60;;;;;;5084494;28;20247;-46
2021/05/30 03:21:16;;;;;;;3.90;2.50;;;11.00;63.40;;;;;;5083785;28;20052;-46
2021/05/30 03:23:42;;;;;;;3.42;2.22;;;11.00;63.40;;;;;;5086063;28;20036;-49
2021/05/30 03:26:07;;;;;;;3.25;2.50;;;10.90;63.60;;;;;;5084272;28;20032;-47
2021/05/30 03:28:33;;;;;;;3.00;2.22;;;10.90;63.70;;;;;;5082680;28;20048;-46
2021/05/30 03:30:58;;;;;;;4.03;2.50;;;10.90;63.80;;;;;;5083937;28;20092;-47
2021/05/30 03:33:24;;;;;;;3.25;2.38;;;10.90;63.80;;;;;;5083927;28;20362;-46
2021/05/30 03:35:50;;;;;;;3.50;2.30;;;10.90;63.70;;;;;;5085616;28;20036;-46
2021/05/30 03:38:17;;;;;;;3.80;2.25;;;10.80;64.00;;;;;;5083343;28;20324;-46
2021/05/30 03:40:47;;;;;;;5.35;2.50;;;10.90;63.80;;;;;;5083647;28;20059;-47
2021/05/30 03:43:13;;;;;;;3.30;2.22;;;10.90;63.90;;;;;;5084088;28;20213;-46
2021/05/30 03:45:39;;;;;;;3.38;2.60;;;10.80;63.90;;;;;;5083440;28;20043;-47
2021/05/30 03:48:05;;;;;;;4.20;2.20;;;10.90;63.70;;;;;;5085199;28;20220;-49
2021/05/30 03:50:31;;;;;;;3.30;2.30;;;10.90;63.40;;;;;;5083624;28;20043;-51
2021/05/30 03:52:57;;;;;;;3.90;2.63;;;10.90;63.30;;;;;;5083655;28;20110;-47
2021/05/30 03:55:22;;;;;;;3.50;2.30;;;10.80;63.60;;;;;;5083283;28;20224;-47
2021/05/30 03:57:48;;;;;;;2.88;2.00;;;10.80;63.90;;;;;;5083499;28;20347;-46
2021/05/30 04:00:17;;;;;;;3.95;2.50;;;10.80;64.10;;;;;;5083095;28;20025;-47
2021/05/30 04:02:43;;;;;;;3.42;2.13;;;10.80;64.00;;;;;;5084986;28;20053;-47
2021/05/30 04:05:10;;;;;;;3.00;2.22;;;10.80;64.30;;;;;;5083001;28;20332;-47
2021/05/30 04:07:38;;;;;;;3.35;2.40;;;10.90;64.30;;;;;;5083050;28;20044;-46
2021/05/30 04:10:09;;;;;;;3.00;2.15;;;10.90;64.10;;;;;;5082945;28;20256;-48
2021/05/30 04:12:35;;;;;;;3.13;2.22;;;10.90;64.30;;;;;;5083292;28;20028;-47
2021/05/30 04:15:00;;;;;;;3.45;2.45;;;10.90;64.30;;;;;;5084871;28;20029;-48
2021/05/30 04:17:26;;;;;;;3.67;2.25;;;11.00;64.10;;;;;;5083179;28;20058;-47
2021/05/30 04:19:51;;;;;;;4.05;2.55;;;11.20;63.50;;;;;;5082801;28;20232;-46
2021/05/30 04:22:17;;;;;;;4.03;2.22;;;11.10;63.50;;;;;;5065086;28;20052;-47
2021/05/30 04:24:43;;;;;;;3.15;2.38;;;11.20;63.20;;;;;;5081977;28;20029;-47
2021/05/30 04:27:08;;;;;;;6.47;2.50;;;11.10;63.40;;;;;;5084254;28;20028;-46
2021/05/30 04:29:34;;;;;;;4.22;2.30;;;11.10;64.00;;;;;;5082454;28;20096;-46
2021/05/30 04:32:02;;;;;;;4.38;2.40;;;11.10;64.10;;;;;;5082729;28;20039;-46
2021/05/30 04:34:27;;;;;;;4.38;2.42;;;11.10;64.60;;;;;;5082929;28;20053;-48
2021/05/30 04:36:53;;;;;;;8.55;2.65;;;11.10;64.70;;;;;;5082802;28;20328;-48
2021/05/30 04:39:18;;;;;;;5.22;2.55;;;11.10;64.90;;;;;;5082846;28;20308;-46
2021/05/30 04:41:44;;;;;;;5.38;2.50;;;11.20;65.10;;;;;;5084510;28;20024;-48
2021/05/30 04:44:09;;;;;;;3.30;2.33;;;11.10;65.10;;;;;;5082566;28;20040;-51
2021/05/30 04:46:35;;;;;;;3.58;2.30;;;11.20;65.20;;;;;;5082595;28;20033;-47
2021/05/30 04:49:00;;;;;;;5.00;3.13;;;11.30;65.10;;;;;;5082350;28;20048;-46
2021/05/30 04:51:26;;;;;;;4.32;2.42;;;11.30;65.30;;;;;;5081952;28;20029;-46
2021/05/30 04:53:54;;;;;;;4.38;2.70;;;11.40;64.90;;;;;;5084098;28;20297;-46
2021/05/30 04:56:21;;;;;;;4.32;2.45;;;11.40;65.10;;;;;;5082684;28;20051;-47
2021/05/30 04:58:47;;;;;;;3.83;2.78;;;11.40;65.30;;;;;;5081218;28;20037;-46
2021/05/30 05:01:13;;;;;;;3.95;2.55;;;11.40;65.10;;;;;;5082235;28;20085;-46
2021/05/30 05:03:38;;;;;;;5.65;2.60;;;11.50;65.40;;;;;;5082336;28;20316;-47
2021/05/30 05:06:04;;;;;;;4.47;2.83;;;11.50;65.30;;;;;;5083982;28;20056;-46
2021/05/30 05:08:30;;;;;;;3.63;2.85;;;11.50;65.40;;;;;;5082772;28;20037;-46
2021/05/30 05:10:55;;;;;;;5.20;3.30;;;11.60;65.40;;;;;;5064393;28;20050;-46
2021/05/30 05:13:21;;;;;;;6.75;3.45;;;11.70;65.40;;;;;;5082386;28;20261;-47
2021/05/30 05:15:51;;;;;;;6.32;3.38;;;11.70;65.70;;;;;;5082196;28;20082;-46
2021/05/30 05:18:21;;;;;;;5.78;3.53;;;11.80;65.70;;;;;;5082402;28;20036;-46
2021/05/30 05:20:46;;;;;;;7.03;3.72;;;11.80;65.50;;;;;;5084133;28;20032;-50
2021/05/30 05:23:16;;;;;;;5.10;3.97;;;11.80;65.30;;;;;;5082500;28;20056;-47
2021/05/30 05:25:42;;;;;;;8.57;3.90;;;11.90;65.40;;;;;;5082559;28;20090;-49
2021/05/30 05:28:07;;;;;;;5.18;4.13;;;11.90;65.20;;;;;;5082479;28;20329;-46
2021/05/30 05:30:33;;;;;;;5.78;4.03;;;12.00;64.70;;;;;;5082217;28;20040;-49
2021/05/30 05:32:59;;;;;;;5.97;4.05;;;12.00;64.00;;;;;;5084106;28;20033;-46
2021/05/30 05:35:25;;;;;;;6.05;4.20;;;12.10;63.70;;;;;;5082652;28;20028;-46
2021/05/30 05:37:55;;;;;;;6.10;4.10;;;12.20;63.70;;;;;;5082203;28;20032;-47
2021/05/30 05:40:21;;;;;;;5.47;4.10;;;12.30;63.70;;;;;;5082258;28;20060;-48
2021/05/30 05:42:46;;;;;;;8.82;4.35;;;12.30;63.70;;;;;;5082224;28;20025;-47
2021/05/30 05:45:12;;;;;;;5.22;3.95;;;12.40;63.50;;;;;;5082326;28;20035;-45
2021/05/30 05:47:42;;;;;;;6.05;4.13;;;12.40;63.40;;;;;;5083462;28;20347;-47
2021/05/30 05:50:08;;;;;;;8.73;4.00;;;12.40;63.60;;;;;;5081370;28;20032;-47
2021/05/30 05:52:33;;;;;;;7.03;4.38;;;12.50;63.60;;;;;;5082342;28;20351;-47
2021/05/30 05:54:59;;;;;;;6.18;4.53;;;12.50;64.10;;;;;;5082100;28;20037;-47
2021/05/30 05:57:24;;;;;;;7.22;4.80;;;12.50;63.50;;;;;;5081782;28;20039;-48
2021/05/30 05:59:50;;;;;;;6.47;4.53;;;12.60;63.20;;;;;;5083357;28;20081;-46
2021/05/30 06:02:17;;;;;;;7.45;4.97;;;12.70;62.90;;;;;;5083785;28;20059;-47
2021/05/30 06:04:43;;;;;;;8.55;5.13;;;12.70;62.80;;;;;;5085397;28;20051;-47
2021/05/30 06:07:08;;;;;;;6.22;4.60;;;12.80;62.90;;;;;;5085573;28;20066;-46
2021/05/30 06:09:34;;;;;;;8.80;5.43;;;12.80;63.10;;;;;;5085556;28;20025;-48
2021/05/30 06:12:00;;;;;;;8.57;5.18;;;12.80;62.70;;;;;;5087192;28;20126;-47
2021/05/30 06:14:25;;;;;;;7.18;5.10;;;12.90;62.50;;;;;;5085808;28;20028;-47
2021/05/30 06:16:51;;;;;;;8.10;5.40;;;12.90;62.40;;;;;;5085777;28;20041;-49
2021/05/30 06:19:18;;;;;;;7.97;5.68;;;12.90;61.90;;;;;;5084133;28;20033;-47
2021/05/30 06:21:44;;;;;;;8.60;4.55;;;13.10;62.10;;;;;;5085184;28;20044;-46
2021/05/30 06:24:10;;;;;;;7.47;5.32;;;13.10;62.10;;;;;;5086812;28;20024;-47
2021/05/30 06:26:35;;;;;;;8.23;5.38;;;13.20;62.20;;;;;;5085150;28;20033;-47
2021/05/30 06:29:01;;;;;;;10.90;5.53;;;13.20;61.80;;;;;;5084975;28;20049;-47
2021/05/30 06:31:26;;;;;;;10.18;4.85;;;13.30;61.80;;;;;;5085122;28;20040;-46
2021/05/30 06:33:52;;;;;;;9.63;5.57;;;13.30;61.90;;;;;;5085125;28;20078;-47
2021/05/30 06:36:18;;;;;;;8.57;5.70;;;13.40;62.00;;;;;;5083808;28;20146;-46
2021/05/30 06:38:44;;;;;;;12.65;5.72;;;13.40;61.20;;;;;;5086910;28;20371;-47
2021/05/30 06:41:10;;;;;;;17.90;5.82;;;13.40;60.80;;;;;;5085374;28;20036;-50
2021/05/30 06:43:35;;;;;;;9.40;5.30;;;13.60;61.10;;;;;;5084793;28;20340;-46
2021/05/30 06:46:01;;;;;;;15.60;5.50;;;13.60;60.70;;;;;;5084839;28;20043;-46
2021/05/30 06:48:26;;;;;;;10.07;5.30;;;13.70;59.40;;;;;;5084657;28;20051;-46
2021/05/30 06:53:36;;;;;;;7.20;4.53;;;13.80;58.50;;;;;;5085112;28;20060;-47
2021/05/30 06:56:01;;;;;;;7.82;4.80;;;14.00;58.80;;;;;;5084617;28;20363;-48
2021/05/30 06:58:27;;;;;;;11.15;4.53;;;14.10;58.60;;;;;;5084662;28;20029;-48
2021/05/30 07:00:52;;;;;;;8.52;4.45;;;14.10;57.70;;;;;;5084491;28;20058;-48
2021/05/30 07:03:18;;;;;;;9.45;4.65;;;14.20;58.50;;;;;;5083012;28;20036;-48
2021/05/30 07:05:43;;;;;;;8.45;4.53;;;14.30;58.60;;;;;;5085890;28;20052;-47
2021/05/30 07:08:09;;;;;;;8.90;4.80;;;14.40;58.40;;;;;;5084108;28;20129;-46
2021/05/30 07:10:34;;;;;;;11.25;4.57;;;14.40;57.60;;;;;;5082882;28;20360;-47
2021/05/30 07:13:00;;;;;;;6.15;4.38;;;14.40;57.30;;;;;;5083464;28;20024;-47
2021/05/30 07:15:25;;;;;;;7.95;4.60;;;14.60;57.20;;;;;;5083036;28;20066;-46
2021/05/30 07:17:51;;;;;;;6.68;4.78;;;14.50;56.50;;;;;;5084572;28;20029;-48
2021/05/30 07:20:17;;;;;;;8.35;5.28;;;14.50;56.00;;;;;;5084397;28;20040;-47
2021/05/30 07:22:42;;;;;;;9.32;4.95;;;14.70;56.70;;;;;;5082848;28;20044;-48
2021/05/30 07:25:08;;;;;;;10.98;5.57;;;14.80;56.70;;;;;;5083721;28;20347;-47
2021/05/30 07:27:34;;;;;;;7.80;4.80;;;14.90;56.70;;;;;;5084341;28;20346;-47
2021/05/30 07:30:00;;;;;;;7.65;4.55;;;15.00;55.20;;;;;;5085632;28;20067;-48
2021/05/30 07:32:25;;;;;;;5.85;4.28;;;15.20;56.70;;;;;;5084295;28;20390;-48
2021/05/30 07:34:51;;;;;;;6.88;4.35;;;15.30;56.90;;;;;;5083756;28;20041;-47
2021/05/30 07:37:16;;;;;;;7.57;4.35;;;15.50;56.90;;;;;;5083727;28;20037;-50
2021/05/30 07:39:42;;;;;;;7.53;4.90;;;15.60;55.60;;;;;;5083686;28;20224;-49
2021/05/30 07:42:09;;;;;;;6.88;4.50;;;15.70;56.60;;;;;;5085281;28;20106;-48
2021/05/30 07:44:34;;;;;;;6.57;4.38;;;15.80;56.20;;;;;;5084108;28;20220;-48
2021/05/30 07:47:00;;;;;;;9.00;4.70;;;15.80;54.90;;;;;;5083735;28;20044;-47
2021/05/30 07:49:26;;;;;;;9.85;4.40;;;16.00;53.90;;;;;;5083389;28;20044;-48
2021/05/30 07:51:52;;;;;;;7.72;4.68;;;16.10;54.30;;;;;;5083364;28;20044;-48
2021/05/30 07:54:17;;;;;;;6.50;4.00;;;16.30;54.50;;;;;;5083110;28;20363;-47
2021/05/30 07:56:43;;;;;;;5.93;3.63;;;16.40;54.10;;;;;;5084853;28;20086;-47
2021/05/30 07:59:10;;;;;;;5.22;3.60;;;16.50;51.70;;;;;;5083967;28;20044;-48
2021/05/30 08:01:35;;;;;;;9.15;3.83;;;16.60;50.50;;;;;;5083755;28;20036;-48
2021/05/30 08:04:01;;;;;;;5.90;4.18;;;16.70;50.10;;;;;;5083320;28;20254;-48
2021/05/30 08:06:30;;;;;;;5.25;3.75;;;16.70;50.30;;;;;;5082949;28;20024;-47
2021/05/30 08:08:55;;;;;;;6.43;4.28;;;16.90;51.00;;;;;;5084409;28;20040;-47
2021/05/30 08:11:21;;;;;;;10.50;3.50;;;17.00;51.30;;;;;;5083409;28;20028;-49
2021/05/30 08:13:46;;;;;;;6.65;3.47;;;17.10;50.50;;;;;;5082967;28;20036;-48
2021/05/30 08:16:12;;;;;;;5.57;3.53;;;17.20;50.50;;;;;;5083246;28;20244;-48
2021/05/30 08:18:37;;;;;;;5.10;3.10;;;17.20;48.10;;;;;;5082389;28;20029;-48
2021/05/30 08:21:03;;;;;;;4.90;2.60;;;17.40;48.00;;;;;;5084623;28;20095;-48
2021/05/30 08:23:29;;;;;;;5.07;2.88;;;17.40;47.20;;;;;;5083316;28;20040;-48
2021/05/30 08:25:54;;;;;;;4.53;3.10;;;17.40;46.40;;;;;;5082637;28;20037;-49
2021/05/30 08:28:20;;;;;;;4.35;2.47;;;17.50;45.90;;;;;;5082386;28;20235;-48
2021/05/30 08:30:45;;;;;;;4.45;2.63;;;17.40;43.00;;;;;;5082744;28;20043;-49
2021/05/30 08:33:11;;;;;;;3.95;2.25;;;17.50;44.50;;;;;;5084617;28;20020;-48
2021/05/30 08:35:36;;;;;;;5.68;2.67;;;17.70;44.50;;;;;;5083506;28;20028;-48
2021/05/30 08:38:02;;;;;;;4.97;2.55;;;17.80;45.20;;;;;;5082622;28;20037;-47
2021/05/30 08:40:27;;;;;;;8.73;2.75;;;17.90;44.90;;;;;;5082440;28;20333;-50
2021/05/30 08:42:53;;;;;;;4.50;2.47;;;18.20;44.10;;;;;;5082699;28;20033;-48
2021/05/30 08:45:19;;;;;;;7.05;2.55;;;18.30;43.80;;;;;;5083134;28;20073;-49
2021/05/30 08:47:47;;;;;;;3.33;2.47;;;18.20;41.80;;;;;;5084140;28;20243;-47
2021/05/30 08:50:13;;;;;;;3.85;2.50;;;18.20;42.30;;;;;;5081548;28;20263;-48
2021/05/30 08:52:39;;;;;;;2.90;1.70;;;18.10;43.20;;;;;;5082763;28;20032;-48
2021/05/30 08:55:05;;;;;;;7.80;2.30;;;17.90;41.40;;;;;;5082334;28;20073;-49
2021/05/30 08:57:31;;;;;;;4.65;2.25;;;17.90;40.20;;;;;;5082358;28;20040;-49
2021/05/30 08:59:57;;;;;;;3.92;2.45;;;17.90;41.20;;;;;;5084016;28;20028;-51
2021/05/30 09:02:23;;;;;;;4.75;2.60;;;17.90;42.30;;;;;;5082858;28;20040;-49
2021/05/30 09:04:50;;;;;;;5.95;2.63;;;18.00;43.10;;;;;;5081142;28;20052;-49
2021/05/30 09:07:16;;;;;;;4.15;2.70;;;18.10;42.90;;;;;;5082235;28;20032;-50
2021/05/30 09:09:46;;;;;;;5.25;3.20;;;18.30;42.00;;;;;;5082281;28;20083;-49
2021/05/30 09:12:34;;;;;;;5.75;2.80;;;18.30;42.30;;;;;;5082648;28;20079;-50
2021/05/30 09:15:03;;;;;;;4.00;2.70;;;18.40;42.20;;;;;;5084048;28;20024;-50
2021/05/30 09:17:29;;;;;;;5.80;3.30;;;18.30;42.50;;;;;;5082705;28;20101;-47
2021/05/30 09:19:55;;;;;;;7.20;2.95;;;18.10;41.10;;;;;;5081386;28;20052;-45
2021/05/30 09:22:32;;;;;;;5.72;3.47;;;18.10;42.20;;;;;;5082188;28;20055;-46
2021/05/30 09:24:59;;;;;;;5.70;3.45;;;18.10;42.50;;;;;;5082124;28;20063;-46
2021/05/30 09:27:25;;;;;;;6.60;3.30;;;18.20;43.00;;;;;;5082192;28;20078;-46
2021/05/30 09:30:13;;;;;;;6.45;3.17;;;18.10;42.20;;;;;;5084196;28;20080;-46
2021/05/30 09:33:03;;;;;;;5.25;3.03;;;18.20;42.50;;;;;;5082990;28;20312;-46
2021/05/30 09:35:37;;;;;;;5.70;3.22;;;18.10;43.40;;;;;;5082346;28;20040;-46
2021/05/30 09:38:08;;;;;;;5.47;2.75;;;18.10;42.70;;;;;;5085854;28;20137;-46
2021/05/30 09:40:35;;;;;;;5.78;2.80;;;18.30;41.90;;;;;;5086223;28;20040;-46
2021/05/30 09:43:04;;;;;;;3.63;2.30;;;18.40;40.80;;;;;;5085880;28;20336;-47
2021/05/30 09:45:29;;;;;;;4.75;2.40;;;18.60;41.80;;;;;;5085844;28;20078;-46
2021/05/30 09:47:55;;;;;;;4.40;2.67;;;18.80;41.90;;;;;;5087807;28;20328;-47
2021/05/30 09:50:20;;;;;;;4.00;2.20;;;18.90;40.30;;;;;;5086094;28;20131;-49
2021/05/30 09:52:47;;;;;;;3.65;2.45;;;18.90;39.30;;;;;;5084925;28;20056;-46
2021/05/30 09:55:20;;;;;;;7.30;2.45;;;18.90;35.60;;;;;;5085836;28;20094;-46
2021/05/30 09:58:05;;;;;;;4.55;2.67;;;18.80;36.80;;;;;;5086194;28;20048;-46
2021/05/30 10:00:31;;;;;;;4.40;2.28;;;19.10;40.20;;;;;;5085679;28;20096;-47
2021/05/30 10:02:56;;;;;;;4.15;2.30;;;19.10;39.70;;;;;;5087223;28;20020;-47
2021/05/30 10:05:22;;;;;;;3.22;2.17;;;19.20;40.70;;;;;;5086092;28;20046;-46
2021/05/30 10:07:48;;;;;;;5.30;2.05;;;19.30;37.10;;;;;;5085729;28;20060;-46
2021/05/30 10:10:14;;;;;;;6.95;2.22;;;19.30;37.30;;;;;;5085811;28;20213;-48
2021/05/30 10:12:41;;;;;;;5.07;2.05;;;19.20;35.10;;;;;;5085450;28;20028;-47
2021/05/30 10:15:07;;;;;;;4.32;2.63;;;19.00;35.50;;;;;;5087052;28;20029;-49
2021/05/30 10:17:33;;;;;;;5.70;2.58;;;19.20;36.90;;;;;;5085203;28;20041;-47
2021/05/30 10:19:58;;;;;;;4.05;2.17;;;19.30;36.50;;;;;;5084696;28;20052;-51
2021/05/30 10:22:24;;;;;;;4.20;2.25;;;19.30;36.10;;;;;;5084096;28;20051;-47
2021/05/30 10:24:49;;;;;;;3.97;2.15;;;19.40;36.70;;;;;;5085238;28;20078;-47
2021/05/30 10:27:23;;;;;;;4.65;2.40;;;19.60;35.90;;;;;;5085512;28;20085;-48
2021/05/30 10:30:07;;;;;;;5.55;2.95;;;19.60;35.80;;;;;;5087205;28;20313;-47
2021/05/30 10:32:35;;;;;;;3.88;2.50;;;19.90;39.10;;;;;;5085548;28;20033;-46
2021/05/30 10:35:20;;;;;;;4.47;2.60;;;20.10;38.90;;;;;;5085694;28;20092;-47
2021/05/30 10:37:49;;;;;;;5.00;3.10;;;20.30;38.80;;;;;;5085089;28;20040;-47
2021/05/30 10:40:24;;;;;;;5.78;2.67;;;20.30;37.20;;;;;;5085021;28;20041;-47
2021/05/30 10:43:08;;;;;;;4.45;2.35;;;20.40;37.40;;;;;;5084965;28;20043;-50
2021/05/30 10:45:55;;;;;;;4.20;2.75;;;20.30;32.80;;;;;;5084896;28;20040;-47
2021/05/30 10:48:20;;;;;;;3.42;2.50;;;20.40;35.30;;;;;;5082391;28;20029;-52
2021/05/30 10:51:16;;;;;;;3.75;2.60;;;20.50;35.90;;;;;;5085491;28;20039;-53
2021/05/30 10:53:46;;;;;;;6.03;2.70;;;20.50;36.00;;;;;;5084314;28;20074;-50
2021/05/30 10:56:15;;;;;;;8.55;3.15;;;20.40;37.00;;;;;;5083555;28;20041;-51
2021/05/30 10:58:42;;;;;;;3.28;2.70;;;20.30;35.20;;;;;;5084396;28;20269;-53
2021/05/30 11:01:33;;;;;;;4.95;2.90;;;20.40;36.70;;;;;;5084435;28;20355;-49
2021/05/30 11:04:17;;;;;;;;;;;20.40;35.20;;;;;;5084993;28;20033;-47
2021/05/30 11:06:43;;;;;;;6.57;2.70;;;20.30;34.80;;;;;;5084451;28;19939;-47
2021/05/30 11:09:08;;;;;;;4.70;2.63;;;20.50;36.10;;;;;;5086144;28;20047;-48
2021/05/30 11:11:34;;;;;;;5.22;2.78;;;20.60;36.30;;;;;;5084722;28;20043;-47
2021/05/30 11:14:02;;;;;;;5.10;2.78;;;20.70;36.50;;;;;;5083410;28;20028;-49
2021/05/30 11:16:29;;;;;;;5.10;2.97;;;20.80;36.80;;;;;;5083259;28;20043;-48
2021/05/30 11:19:05;;;;;;;3.95;2.97;;;20.70;36.30;;;;;;5084187;28;20033;-48
2021/05/30 11:21:37;;;;;;;4.13;2.83;;;20.60;35.60;;;;;;5084170;28;20247;-47
2021/05/30 11:24:06;;;;;;;5.55;4.32;;;20.40;36.30;;;;;;5086220;28;20036;-49
2021/05/30 11:26:32;;;;;;;5.47;3.55;;;20.40;36.90;;;;;;5084300;28;20037;-49
2021/05/30 11:28:58;;;;;;;5.20;3.50;;;20.30;36.60;;;;;;5084211;28;20097;-47
2021/05/30 11:31:24;;;;;;;4.40;3.08;;;20.30;35.90;;;;;;5083158;28;20041;-50
2021/05/30 11:34:04;;;;;;;4.05;2.70;;;20.30;36.80;;;;;;5083877;28;20054;-48
2021/05/30 11:36:34;;;;;;;4.93;2.88;;;20.30;36.10;;;;;;5083772;28;20036;-49
2021/05/30 11:39:16;;;;;;;4.38;3.10;;;20.10;34.00;;;;;;5085338;28;20033;-47
2021/05/30 11:41:51;;;;;;;8.13;3.20;;;20.00;34.20;;;;;;5084673;28;20035;-47
2021/05/30 11:44:18;;;;;;;5.07;3.20;;;20.10;35.20;;;;;;5084172;28;20335;-48
2021/05/30 11:46:50;;;;;;;4.07;2.67;;;20.10;35.40;;;;;;5084198;28;20032;-48
2021/05/30 11:49:16;;;;;;;3.83;2.80;;;20.10;35.60;;;;;;5083802;28;20044;-47
2021/05/30 11:51:48;;;;;;;5.00;3.05;;;20.20;35.80;;;;;;5083638;28;20037;-47
2021/05/30 11:54:13;;;;;;;5.78;2.50;;;20.30;36.40;;;;;;5083513;28;20032;-50
2021/05/30 11:56:43;;;;;;;6.57;3.55;;;20.40;36.00;;;;;;5084828;28;20080;-47
2021/05/30 11:59:08;;;;;;;6.13;2.97;;;20.40;35.50;;;;;;5083442;28;20036;-46
2021/05/30 12:01:47;;;;;;;4.93;2.88;;;20.50;35.70;;;;;;5083268;28;20043;-47
2021/05/30 12:04:22;;;;;;;4.65;3.17;;;20.50;34.60;;;;;;5083306;28;20037;-47
2021/05/30 12:06:49;;;;;;;4.53;3.25;;;20.40;33.50;;;;;;5081720;28;20036;-48
2021/05/30 12:09:14;;;;;;;5.97;3.42;;;20.30;35.30;;;;;;5082953;28;20032;-47
2021/05/30 12:11:40;;;;;;;5.78;2.80;;;20.30;34.10;;;;;;5084905;28;20048;-47
2021/05/30 12:14:06;;;;;;;3.83;2.63;;;20.40;34.40;;;;;;5083216;28;20029;-49
2021/05/30 12:16:32;;;;;;;4.10;2.70;;;20.30;33.50;;;;;;5083010;28;20055;-47
2021/05/30 12:18:59;;;;;;;5.97;2.42;;;20.40;34.20;;;;;;5083087;28;20044;-49
2021/05/30 12:21:44;;;;;;;4.18;2.55;;;20.10;31.60;;;;;;5082768;28;20045;-46
2021/05/30 12:24:14;;;;;;;4.45;3.17;;;20.10;33.20;;;;;;5084574;28;20245;-49
2021/05/30 12:26:41;;;;;;;8.57;2.92;;;20.10;35.00;;;;;;5083627;28;20029;-46
2021/05/30 12:29:07;;;;;;;4.00;2.72;;;20.00;33.20;;;;;;5083146;28;20036;-47
2021/05/30 12:31:32;;;;;;;3.95;2.65;;;20.00;33.90;;;;;;5082753;28;20052;-49
2021/05/30 12:34:00;;;;;;;3.58;2.38;;;20.30;34.80;;;;;;5082446;28;20048;-48
2021/05/30 12:36:44;;;;;;;4.80;2.63;;;20.40;34.80;;;;;;5082334;28;20032;-47
2021/05/30 12:39:12;;;;;;;4.10;2.30;;;20.60;34.40;;;;;;5084259;28;20024;-48
2021/05/30 12:41:45;;;;;;;5.20;2.80;;;20.60;34.10;;;;;;5081412;28;20035;-47
2021/05/30 12:44:12;;;;;;;4.15;2.72;;;20.60;33.70;;;;;;5082905;28;20046;-48
2021/05/30 12:46:38;;;;;;;5.13;2.80;;;20.70;35.00;;;;;;5081828;28;20358;-48
2021/05/30 12:49:16;;;;;;;5.05;3.30;;;20.50;33.50;;;;;;5082648;28;20040;-52
2021/05/30 12:52:08;;;;;;;6.30;2.70;;;20.50;33.60;;;;;;5081273;28;20029;-47